sensor_id;sensor_type;location;lat;lon;timestamp;P1;durP1;ratioP1;P2;durP2;ratioP2
69744;SDS011;57015;50.120;-5.168;2023-06-14T00:00:43;10.40;;;6.07;;
69744;SDS011;57015;50.120;-5.168;2023-06-14T00:03:09;9.30;;;6.23;;
69744;SDS011;57015;50.120;-5.168;2023-06-14T00:05:36;10.00;;;6.53;;
69744;SDS011;57015;50.120;-5.168;2023-06-14T00:08:06;10.07;;;6.63;;
69744;SDS011;57015;50.120;-5.168;2023-06-14T00:10:35;10.57;;;6.30;;
69744;SDS011;57015;50.120;-5.168;2023-06-14T00:13:04;10.37;;;6.07;;
69744;SDS011;57015;50.120;-5.168;2023-06-14T00:15:33;10.15;;;6.60;;
69744;SDS011;57015;50.120;-5.168;2023-06-14T00:17:59;10.82;;;6.55;;
69744;SDS011;57015;50.120;-5.168;2023-06-14T00:20:27;10.45;;;6.35;;
69744;SDS011;57015;50.120;-5.168;2023-06-14T00:22:57;9.80;;;6.70;;
69744;SDS011;57015;50.120;-5.168;2023-06-14T00:25:23;8.73;;;5.50;;
69744;SDS011;57015;50.120;-5.168;2023-06-14T00:27:52;8.82;;;5.63;;
69744;SDS011;57015;50.120;-5.168;2023-06-14T00:30:18;9.85;;;5.85;;
69744;SDS011;57015;50.120;-5.168;2023-06-14T00:32:44;9.80;;;6.10;;
69744;SDS011;57015;50.120;-5.168;2023-06-14T00:35:10;8.70;;;5.95;;
69744;SDS011;57015;50.120;-5.168;2023-06-14T00:37:35;9.90;;;5.78;;
69744;SDS011;57015;50.120;-5.168;2023-06-14T00:40:01;11.90;;;6.53;;
69744;SDS011;57015;50.120;-5.168;2023-06-14T00:42:27;9.10;;;5.75;;
69744;SDS011;57015;50.120;-5.168;2023-06-14T00:44:53;9.82;;;6.22;;
69744;SDS011;57015;50.120;-5.168;2023-06-14T00:47:19;8.02;;;5.97;;
69744;SDS011;57015;50.120;-5.168;2023-06-14T00:49:45;10.75;;;5.82;;
69744;SDS011;57015;50.120;-5.168;2023-06-14T00:52:11;9.13;;;6.30;;
69744;SDS011;57015;50.120;-5.168;2023-06-14T00:54:37;11.57;;;6.67;;
69744;SDS011;57015;50.120;-5.168;2023-06-14T00:57:03;11.05;;;5.75;;
69744;SDS011;57015;50.120;-5.168;2023-06-14T00:59:29;10.77;;;6.53;;
69744;SDS011;57015;50.120;-5.168;2023-06-14T01:01:54;9.27;;;6.10;;
69744;SDS011;57015;50.120;-5.168;2023-06-14T01:04:20;8.07;;;5.67;;
69744;SDS011;57015;50.120;-5.168;2023-06-14T01:12:23;9.35;;;5.80;;
69744;SDS011;57015;50.120;-5.168;2023-06-14T01:14:54;11.93;;;5.97;;
69744;SDS011;57015;50.120;-5.168;2023-06-14T01:17:21;9.20;;;4.82;;
69744;SDS011;57015;50.120;-5.168;2023-06-14T01:19:48;9.27;;;5.57;;
69744;SDS011;57015;50.120;-5.168;2023-06-14T01:22:14;10.80;;;5.70;;
69744;SDS011;57015;50.120;-5.168;2023-06-14T01:24:39;10.75;;;6.00;;
69744;SDS011;57015;50.120;-5.168;2023-06-14T01:27:09;9.88;;;5.90;;
69744;SDS011;57015;50.120;-5.168;2023-06-14T01:29:35;10.20;;;6.03;;
69744;SDS011;57015;50.120;-5.168;2023-06-14T01:32:01;9.20;;;6.00;;
69744;SDS011;57015;50.120;-5.168;2023-06-14T01:34:27;7.63;;;5.43;;
69744;SDS011;57015;50.120;-5.168;2023-06-14T01:36:53;8.18;;;5.45;;
69744;SDS011;57015;50.120;-5.168;2023-06-14T01:39:20;8.80;;;5.67;;
69744;SDS011;57015;50.120;-5.168;2023-06-14T01:41:46;8.98;;;5.40;;
69744;SDS011;57015;50.120;-5.168;2023-06-14T01:44:12;12.05;;;5.78;;
69744;SDS011;57015;50.120;-5.168;2023-06-14T01:46:37;9.07;;;5.33;;
69744;SDS011;57015;50.120;-5.168;2023-06-14T01:49:03;7.82;;;4.93;;
69744;SDS011;57015;50.120;-5.168;2023-06-14T01:51:28;8.93;;;5.10;;
69744;SDS011;57015;50.120;-5.168;2023-06-14T01:53:54;9.30;;;5.70;;
69744;SDS011;57015;50.120;-5.168;2023-06-14T01:56:20;8.48;;;5.25;;
69744;SDS011;57015;50.120;-5.168;2023-06-14T01:58:46;8.77;;;5.13;;
69744;SDS011;57015;50.120;-5.168;2023-06-14T02:01:13;7.63;;;4.83;;
69744;SDS011;57015;50.120;-5.168;2023-06-14T02:03:41;9.43;;;5.10;;
69744;SDS011;57015;50.120;-5.168;2023-06-14T02:06:07;10.48;;;5.05;;
69744;SDS011;57015;50.120;-5.168;2023-06-14T02:08:32;6.87;;;4.87;;
69744;SDS011;57015;50.120;-5.168;2023-06-14T02:10:58;9.53;;;5.03;;
69744;SDS011;57015;50.120;-5.168;2023-06-14T02:13:23;8.70;;;5.03;;
69744;SDS011;57015;50.120;-5.168;2023-06-14T02:15:48;8.93;;;4.83;;
69744;SDS011;57015;50.120;-5.168;2023-06-14T02:18:19;8.57;;;4.60;;
69744;SDS011;57015;50.120;-5.168;2023-06-14T02:20:45;8.50;;;4.55;;
69744;SDS011;57015;50.120;-5.168;2023-06-14T02:23:10;8.67;;;5.10;;
69744;SDS011;57015;50.120;-5.168;2023-06-14T02:25:35;7.10;;;4.65;;
69744;SDS011;57015;50.120;-5.168;2023-06-14T02:28:01;7.70;;;4.95;;
69744;SDS011;57015;50.120;-5.168;2023-06-14T02:30:26;8.63;;;4.67;;
69744;SDS011;57015;50.120;-5.168;2023-06-14T02:32:52;8.87;;;5.00;;
69744;SDS011;57015;50.120;-5.168;2023-06-14T02:35:18;6.90;;;4.28;;
69744;SDS011;57015;50.120;-5.168;2023-06-14T02:37:45;7.00;;;4.60;;
69744;SDS011;57015;50.120;-5.168;2023-06-14T02:40:11;9.35;;;5.03;;
69744;SDS011;57015;50.120;-5.168;2023-06-14T02:42:36;7.60;;;4.47;;
69744;SDS011;57015;50.120;-5.168;2023-06-14T02:45:02;8.68;;;4.30;;
69744;SDS011;57015;50.120;-5.168;2023-06-14T02:47:29;7.28;;;4.82;;
69744;SDS011;57015;50.120;-5.168;2023-06-14T02:49:54;9.05;;;4.50;;
69744;SDS011;57015;50.120;-5.168;2023-06-14T02:52:20;6.77;;;4.23;;
69744;SDS011;57015;50.120;-5.168;2023-06-14T02:54:46;5.82;;;3.72;;
69744;SDS011;57015;50.120;-5.168;2023-06-14T02:57:12;6.63;;;4.23;;
69744;SDS011;57015;50.120;-5.168;2023-06-14T02:59:37;7.73;;;4.03;;
69744;SDS011;57015;50.120;-5.168;2023-06-14T03:02:03;7.20;;;3.92;;
69744;SDS011;57015;50.120;-5.168;2023-06-14T03:04:28;6.70;;;4.17;;
69744;SDS011;57015;50.120;-5.168;2023-06-14T03:06:54;6.53;;;4.00;;
69744;SDS011;57015;50.120;-5.168;2023-06-14T03:09:19;6.78;;;4.03;;
69744;SDS011;57015;50.120;-5.168;2023-06-14T03:11:45;6.32;;;3.80;;
69744;SDS011;57015;50.120;-5.168;2023-06-14T03:14:10;6.87;;;4.20;;
69744;SDS011;57015;50.120;-5.168;2023-06-14T03:16:36;5.75;;;3.95;;
69744;SDS011;57015;50.120;-5.168;2023-06-14T03:19:02;7.00;;;4.07;;
69744;SDS011;57015;50.120;-5.168;2023-06-14T03:21:27;6.80;;;3.88;;
69744;SDS011;57015;50.120;-5.168;2023-06-14T03:23:53;6.03;;;3.87;;
69744;SDS011;57015;50.120;-5.168;2023-06-14T03:26:19;7.40;;;4.30;;
69744;SDS011;57015;50.120;-5.168;2023-06-14T03:28:44;6.40;;;3.63;;
69744;SDS011;57015;50.120;-5.168;2023-06-14T03:31:11;5.40;;;3.70;;
69744;SDS011;57015;50.120;-5.168;2023-06-14T03:33:36;6.65;;;3.85;;
69744;SDS011;57015;50.120;-5.168;2023-06-14T03:36:02;6.57;;;3.87;;
69744;SDS011;57015;50.120;-5.168;2023-06-14T03:38:28;7.60;;;4.00;;
69744;SDS011;57015;50.120;-5.168;2023-06-14T03:40:53;5.87;;;3.87;;
69744;SDS011;57015;50.120;-5.168;2023-06-14T03:43:19;6.50;;;4.00;;
69744;SDS011;57015;50.120;-5.168;2023-06-14T03:45:44;6.95;;;3.65;;
69744;SDS011;57015;50.120;-5.168;2023-06-14T03:48:10;7.37;;;3.60;;
69744;SDS011;57015;50.120;-5.168;2023-06-14T03:50:35;6.77;;;4.10;;
69744;SDS011;57015;50.120;-5.168;2023-06-14T03:53:03;6.50;;;3.65;;
69744;SDS011;57015;50.120;-5.168;2023-06-14T03:55:29;7.68;;;4.47;;
69744;SDS011;57015;50.120;-5.168;2023-06-14T03:57:56;8.05;;;4.43;;
69744;SDS011;57015;50.120;-5.168;2023-06-14T04:00:22;8.20;;;4.07;;
69744;SDS011;57015;50.120;-5.168;2023-06-14T04:02:47;7.00;;;4.25;;
69744;SDS011;57015;50.120;-5.168;2023-06-14T04:05:13;6.13;;;4.10;;
69744;SDS011;57015;50.120;-5.168;2023-06-14T04:07:39;7.20;;;3.63;;
69744;SDS011;57015;50.120;-5.168;2023-06-14T04:10:10;8.00;;;4.10;;
69744;SDS011;57015;50.120;-5.168;2023-06-14T04:12:36;6.38;;;3.83;;
69744;SDS011;57015;50.120;-5.168;2023-06-14T04:15:01;5.50;;;3.90;;
69744;SDS011;57015;50.120;-5.168;2023-06-14T04:17:27;6.97;;;4.43;;
69744;SDS011;57015;50.120;-5.168;2023-06-14T04:19:52;7.03;;;4.47;;
69744;SDS011;57015;50.120;-5.168;2023-06-14T04:22:17;7.70;;;4.57;;
69744;SDS011;57015;50.120;-5.168;2023-06-14T04:24:43;6.83;;;4.43;;
69744;SDS011;57015;50.120;-5.168;2023-06-14T04:27:10;7.80;;;3.97;;
69744;SDS011;57015;50.120;-5.168;2023-06-14T04:29:35;8.03;;;3.93;;
69744;SDS011;57015;50.120;-5.168;2023-06-14T04:32:01;7.33;;;3.90;;
69744;SDS011;57015;50.120;-5.168;2023-06-14T04:34:26;6.80;;;4.15;;
69744;SDS011;57015;50.120;-5.168;2023-06-14T04:36:55;7.45;;;4.30;;
69744;SDS011;57015;50.120;-5.168;2023-06-14T04:39:21;8.50;;;4.27;;
69744;SDS011;57015;50.120;-5.168;2023-06-14T04:41:47;6.40;;;4.15;;
69744;SDS011;57015;50.120;-5.168;2023-06-14T04:44:16;8.13;;;4.40;;
69744;SDS011;57015;50.120;-5.168;2023-06-14T04:46:42;6.67;;;3.97;;
69744;SDS011;57015;50.120;-5.168;2023-06-14T04:49:14;7.85;;;4.47;;
69744;SDS011;57015;50.120;-5.168;2023-06-14T04:51:42;6.25;;;3.78;;
69744;SDS011;57015;50.120;-5.168;2023-06-14T04:54:08;8.25;;;4.40;;
69744;SDS011;57015;50.120;-5.168;2023-06-14T04:56:43;6.53;;;3.83;;
69744;SDS011;57015;50.120;-5.168;2023-06-14T04:59:10;7.22;;;4.38;;
69744;SDS011;57015;50.120;-5.168;2023-06-14T05:01:36;6.82;;;4.22;;
69744;SDS011;57015;50.120;-5.168;2023-06-14T05:04:02;8.32;;;4.63;;
69744;SDS011;57015;50.120;-5.168;2023-06-14T05:06:28;6.97;;;4.90;;
69744;SDS011;57015;50.120;-5.168;2023-06-14T05:08:54;7.50;;;4.20;;
69744;SDS011;57015;50.120;-5.168;2023-06-14T05:11:19;8.20;;;4.90;;
69744;SDS011;57015;50.120;-5.168;2023-06-14T05:13:45;7.30;;;4.40;;
69744;SDS011;57015;50.120;-5.168;2023-06-14T05:16:11;7.65;;;4.82;;
69744;SDS011;57015;50.120;-5.168;2023-06-14T05:18:37;8.53;;;4.10;;
69744;SDS011;57015;50.120;-5.168;2023-06-14T05:21:03;10.52;;;4.65;;
69744;SDS011;57015;50.120;-5.168;2023-06-14T05:23:30;8.18;;;4.60;;
69744;SDS011;57015;50.120;-5.168;2023-06-14T05:25:55;7.83;;;4.40;;
69744;SDS011;57015;50.120;-5.168;2023-06-14T05:28:21;7.87;;;4.73;;
69744;SDS011;57015;50.120;-5.168;2023-06-14T05:30:47;6.85;;;4.35;;
69744;SDS011;57015;50.120;-5.168;2023-06-14T05:33:12;8.13;;;4.50;;
69744;SDS011;57015;50.120;-5.168;2023-06-14T05:35:38;9.73;;;4.63;;
69744;SDS011;57015;50.120;-5.168;2023-06-14T05:38:03;7.00;;;4.10;;
69744;SDS011;57015;50.120;-5.168;2023-06-14T05:40:28;7.33;;;4.63;;
69744;SDS011;57015;50.120;-5.168;2023-06-14T05:42:54;7.15;;;4.43;;
69744;SDS011;57015;50.120;-5.168;2023-06-14T05:45:19;8.00;;;4.68;;
69744;SDS011;57015;50.120;-5.168;2023-06-14T05:47:45;8.73;;;4.90;;
69744;SDS011;57015;50.120;-5.168;2023-06-14T05:50:10;9.17;;;5.20;;
69744;SDS011;57015;50.120;-5.168;2023-06-14T05:52:35;8.67;;;4.67;;
69744;SDS011;57015;50.120;-5.168;2023-06-14T05:55:02;8.50;;;4.80;;
69744;SDS011;57015;50.120;-5.168;2023-06-14T05:57:28;8.07;;;4.93;;
69744;SDS011;57015;50.120;-5.168;2023-06-14T05:59:53;7.30;;;4.67;;
69744;SDS011;57015;50.120;-5.168;2023-06-14T06:02:19;11.70;;;5.37;;
69744;SDS011;57015;50.120;-5.168;2023-06-14T06:04:44;8.00;;;5.10;;
69744;SDS011;57015;50.120;-5.168;2023-06-14T06:07:10;8.52;;;4.90;;
69744;SDS011;57015;50.120;-5.168;2023-06-14T06:09:35;8.65;;;4.82;;
69744;SDS011;57015;50.120;-5.168;2023-06-14T06:12:01;8.17;;;5.13;;
69744;SDS011;57015;50.120;-5.168;2023-06-14T06:14:26;10.73;;;5.13;;
69744;SDS011;57015;50.120;-5.168;2023-06-14T06:16:52;7.73;;;4.90;;
69744;SDS011;57015;50.120;-5.168;2023-06-14T06:19:18;7.70;;;4.82;;
69744;SDS011;57015;50.120;-5.168;2023-06-14T06:21:44;10.60;;;5.17;;
69744;SDS011;57015;50.120;-5.168;2023-06-14T06:24:09;9.80;;;5.33;;
69744;SDS011;57015;50.120;-5.168;2023-06-14T06:26:34;8.02;;;5.25;;
69744;SDS011;57015;50.120;-5.168;2023-06-14T06:29:00;10.60;;;5.15;;
69744;SDS011;57015;50.120;-5.168;2023-06-14T06:31:25;10.83;;;5.80;;
69744;SDS011;57015;50.120;-5.168;2023-06-14T06:33:52;7.85;;;5.28;;
69744;SDS011;57015;50.120;-5.168;2023-06-14T06:36:19;10.47;;;5.50;;
69744;SDS011;57015;50.120;-5.168;2023-06-14T06:38:45;8.75;;;6.25;;
69744;SDS011;57015;50.120;-5.168;2023-06-14T06:41:10;8.37;;;5.37;;
69744;SDS011;57015;50.120;-5.168;2023-06-14T06:43:35;9.27;;;5.90;;
69744;SDS011;57015;50.120;-5.168;2023-06-14T06:46:01;10.90;;;6.10;;
69744;SDS011;57015;50.120;-5.168;2023-06-14T06:48:27;9.47;;;5.90;;
69744;SDS011;57015;50.120;-5.168;2023-06-14T06:50:52;12.10;;;7.00;;
69744;SDS011;57015;50.120;-5.168;2023-06-14T06:53:17;15.38;;;6.30;;
69744;SDS011;57015;50.120;-5.168;2023-06-14T06:55:43;9.80;;;6.55;;
69744;SDS011;57015;50.120;-5.168;2023-06-14T06:58:09;11.67;;;6.67;;
69744;SDS011;57015;50.120;-5.168;2023-06-14T07:00:34;12.00;;;7.53;;
69744;SDS011;57015;50.120;-5.168;2023-06-14T07:03:00;10.33;;;6.83;;
69744;SDS011;57015;50.120;-5.168;2023-06-14T07:05:26;10.63;;;7.35;;
69744;SDS011;57015;50.120;-5.168;2023-06-14T07:07:51;11.33;;;7.37;;
69744;SDS011;57015;50.120;-5.168;2023-06-14T07:10:17;11.60;;;7.03;;
69744;SDS011;57015;50.120;-5.168;2023-06-14T07:12:43;13.15;;;8.25;;
69744;SDS011;57015;50.120;-5.168;2023-06-14T07:15:09;10.93;;;7.70;;
69744;SDS011;57015;50.120;-5.168;2023-06-14T07:17:34;11.55;;;6.90;;
69744;SDS011;57015;50.120;-5.168;2023-06-14T07:20:01;10.77;;;7.37;;
69744;SDS011;57015;50.120;-5.168;2023-06-14T07:22:37;15.05;;;6.60;;
69744;SDS011;57015;50.120;-5.168;2023-06-14T07:25:06;12.18;;;6.95;;
69744;SDS011;57015;50.120;-5.168;2023-06-14T07:27:33;10.80;;;6.82;;
69744;SDS011;57015;50.120;-5.168;2023-06-14T07:29:59;13.40;;;7.77;;
69744;SDS011;57015;50.120;-5.168;2023-06-14T07:32:24;11.80;;;7.55;;
69744;SDS011;57015;50.120;-5.168;2023-06-14T07:34:50;12.80;;;7.87;;
69744;SDS011;57015;50.120;-5.168;2023-06-14T07:37:15;11.57;;;7.00;;
69744;SDS011;57015;50.120;-5.168;2023-06-14T07:39:40;12.17;;;7.00;;
69744;SDS011;57015;50.120;-5.168;2023-06-14T07:42:06;13.30;;;7.93;;
69744;SDS011;57015;50.120;-5.168;2023-06-14T07:44:31;12.35;;;7.28;;
69744;SDS011;57015;50.120;-5.168;2023-06-14T07:46:57;11.95;;;6.97;;
69744;SDS011;57015;50.120;-5.168;2023-06-14T07:49:25;14.10;;;7.00;;
69744;SDS011;57015;50.120;-5.168;2023-06-14T07:51:50;10.65;;;6.45;;
69744;SDS011;57015;50.120;-5.168;2023-06-14T07:54:16;10.13;;;6.60;;
69744;SDS011;57015;50.120;-5.168;2023-06-14T07:56:41;12.53;;;7.27;;
69744;SDS011;57015;50.120;-5.168;2023-06-14T07:59:07;14.02;;;6.70;;
69744;SDS011;57015;50.120;-5.168;2023-06-14T08:01:32;16.20;;;7.53;;
69744;SDS011;57015;50.120;-5.168;2023-06-14T08:03:59;12.95;;;7.53;;
69744;SDS011;57015;50.120;-5.168;2023-06-14T08:06:24;14.37;;;7.43;;
69744;SDS011;57015;50.120;-5.168;2023-06-14T08:08:50;10.03;;;7.10;;
69744;SDS011;57015;50.120;-5.168;2023-06-14T08:11:15;11.13;;;7.43;;
69744;SDS011;57015;50.120;-5.168;2023-06-14T08:13:40;12.03;;;7.13;;
69744;SDS011;57015;50.120;-5.168;2023-06-14T08:16:06;11.75;;;6.55;;
69744;SDS011;57015;50.120;-5.168;2023-06-14T08:18:31;12.30;;;6.88;;
69744;SDS011;57015;50.120;-5.168;2023-06-14T08:20:57;14.57;;;8.00;;
69744;SDS011;57015;50.120;-5.168;2023-06-14T08:23:22;10.17;;;6.40;;
69744;SDS011;57015;50.120;-5.168;2023-06-14T08:25:48;12.43;;;6.60;;
69744;SDS011;57015;50.120;-5.168;2023-06-14T08:28:13;11.70;;;7.10;;
69744;SDS011;57015;50.120;-5.168;2023-06-14T08:30:39;11.33;;;6.93;;
69744;SDS011;57015;50.120;-5.168;2023-06-14T08:33:04;10.60;;;6.53;;
69744;SDS011;57015;50.120;-5.168;2023-06-14T08:35:30;9.68;;;6.43;;
69744;SDS011;57015;50.120;-5.168;2023-06-14T08:37:55;13.07;;;7.03;;
69744;SDS011;57015;50.120;-5.168;2023-06-14T08:40:22;9.83;;;6.80;;
69744;SDS011;57015;50.120;-5.168;2023-06-14T08:42:52;10.07;;;7.18;;
69744;SDS011;57015;50.120;-5.168;2023-06-14T08:45:19;10.05;;;5.90;;
69744;SDS011;57015;50.120;-5.168;2023-06-14T08:47:46;10.13;;;5.90;;
69744;SDS011;57015;50.120;-5.168;2023-06-14T08:50:17;13.88;;;6.50;;
69744;SDS011;57015;50.120;-5.168;2023-06-14T08:52:45;11.68;;;5.88;;
69744;SDS011;57015;50.120;-5.168;2023-06-14T08:55:15;10.55;;;6.35;;
69744;SDS011;57015;50.120;-5.168;2023-06-14T08:57:42;9.85;;;6.20;;
69744;SDS011;57015;50.120;-5.168;2023-06-14T09:00:08;11.47;;;6.60;;
69744;SDS011;57015;50.120;-5.168;2023-06-14T09:02:38;8.25;;;4.85;;
69744;SDS011;57015;50.120;-5.168;2023-06-14T09:05:08;10.05;;;5.43;;
69744;SDS011;57015;50.120;-5.168;2023-06-14T09:07:33;9.20;;;5.87;;
69744;SDS011;57015;50.120;-5.168;2023-06-14T09:10:09;8.80;;;5.43;;
69744;SDS011;57015;50.120;-5.168;2023-06-14T09:12:35;9.60;;;5.57;;
69744;SDS011;57015;50.120;-5.168;2023-06-14T09:15:01;10.07;;;6.28;;
69744;SDS011;57015;50.120;-5.168;2023-06-14T09:17:32;9.65;;;6.10;;
69744;SDS011;57015;50.120;-5.168;2023-06-14T09:19:58;9.57;;;5.33;;
69744;SDS011;57015;50.120;-5.168;2023-06-14T09:22:24;10.45;;;5.88;;
69744;SDS011;57015;50.120;-5.168;2023-06-14T09:24:49;11.43;;;6.70;;
69744;SDS011;57015;50.120;-5.168;2023-06-14T09:27:15;10.25;;;6.28;;
69744;SDS011;57015;50.120;-5.168;2023-06-14T09:29:41;8.00;;;5.13;;
69744;SDS011;57015;50.120;-5.168;2023-06-14T09:32:06;10.10;;;5.70;;
69744;SDS011;57015;50.120;-5.168;2023-06-14T09:34:32;8.85;;;5.18;;
69744;SDS011;57015;50.120;-5.168;2023-06-14T09:36:58;9.07;;;5.37;;
69744;SDS011;57015;50.120;-5.168;2023-06-14T09:39:23;12.43;;;6.00;;
69744;SDS011;57015;50.120;-5.168;2023-06-14T09:41:50;7.87;;;4.97;;
69744;SDS011;57015;50.120;-5.168;2023-06-14T09:44:15;8.75;;;5.57;;
69744;SDS011;57015;50.120;-5.168;2023-06-14T09:46:43;9.23;;;5.55;;
69744;SDS011;57015;50.120;-5.168;2023-06-14T09:49:09;8.68;;;5.25;;
69744;SDS011;57015;50.120;-5.168;2023-06-14T09:51:34;11.77;;;6.03;;
69744;SDS011;57015;50.120;-5.168;2023-06-14T09:54:02;9.93;;;5.60;;
69744;SDS011;57015;50.120;-5.168;2023-06-14T09:56:31;8.00;;;5.20;;
69744;SDS011;57015;50.120;-5.168;2023-06-14T09:58:59;10.63;;;4.88;;
69744;SDS011;57015;50.120;-5.168;2023-06-14T10:01:25;9.40;;;5.80;;
69744;SDS011;57015;50.120;-5.168;2023-06-14T10:04:01;10.40;;;5.50;;
69744;SDS011;57015;50.120;-5.168;2023-06-14T10:06:29;8.43;;;5.75;;
69744;SDS011;57015;50.120;-5.168;2023-06-14T10:08:56;8.47;;;5.33;;
69744;SDS011;57015;50.120;-5.168;2023-06-14T10:11:25;8.02;;;5.28;;
69744;SDS011;57015;50.120;-5.168;2023-06-14T10:13:51;7.88;;;5.60;;
69744;SDS011;57015;50.120;-5.168;2023-06-14T10:16:33;10.10;;;5.30;;
69744;SDS011;57015;50.120;-5.168;2023-06-14T10:19:17;8.77;;;5.72;;
69744;SDS011;57015;50.120;-5.168;2023-06-14T10:21:57;8.00;;;6.20;;
69744;SDS011;57015;50.120;-5.168;2023-06-14T10:24:58;9.30;;;6.03;;
69744;SDS011;57015;50.120;-5.168;2023-06-14T10:27:17;9.82;;;5.38;;
69744;SDS011;57015;50.120;-5.168;2023-06-14T10:32:21;7.85;;;5.25;;
69744;SDS011;57015;50.120;-5.168;2023-06-14T10:34:56;8.27;;;4.97;;
69744;SDS011;57015;50.120;-5.168;2023-06-14T10:37:22;11.35;;;5.38;;
69744;SDS011;57015;50.120;-5.168;2023-06-14T10:39:49;7.72;;;5.60;;
69744;SDS011;57015;50.120;-5.168;2023-06-14T10:42:15;8.80;;;4.83;;
69744;SDS011;57015;50.120;-5.168;2023-06-14T10:44:41;9.30;;;4.80;;
69744;SDS011;57015;50.120;-5.168;2023-06-14T10:47:10;6.90;;;4.83;;
69744;SDS011;57015;50.120;-5.168;2023-06-14T10:50:03;8.15;;;4.78;;
69744;SDS011;57015;50.120;-5.168;2023-06-14T10:52:32;7.10;;;4.93;;
69744;SDS011;57015;50.120;-5.168;2023-06-14T10:55:01;9.15;;;5.07;;
69744;SDS011;57015;50.120;-5.168;2023-06-14T10:57:26;18.00;;;8.48;;
69744;SDS011;57015;50.120;-5.168;2023-06-14T10:59:52;9.47;;;5.27;;
69744;SDS011;57015;50.120;-5.168;2023-06-14T11:05:03;8.95;;;5.35;;
69744;SDS011;57015;50.120;-5.168;2023-06-14T11:12:50;9.93;;;5.10;;
69744;SDS011;57015;50.120;-5.168;2023-06-14T11:15:16;7.70;;;4.95;;
69744;SDS011;57015;50.120;-5.168;2023-06-14T11:17:51;9.20;;;5.40;;
69744;SDS011;57015;50.120;-5.168;2023-06-14T11:20:18;8.50;;;5.50;;
69744;SDS011;57015;50.120;-5.168;2023-06-14T11:22:44;9.05;;;6.25;;
69744;SDS011;57015;50.120;-5.168;2023-06-14T11:25:13;8.13;;;4.80;;
69744;SDS011;57015;50.120;-5.168;2023-06-14T11:27:39;9.25;;;5.55;;
69744;SDS011;57015;50.120;-5.168;2023-06-14T11:30:07;9.18;;;5.25;;
69744;SDS011;57015;50.120;-5.168;2023-06-14T11:32:33;10.00;;;5.45;;
69744;SDS011;57015;50.120;-5.168;2023-06-14T11:34:58;8.83;;;5.60;;
69744;SDS011;57015;50.120;-5.168;2023-06-14T11:37:25;9.27;;;5.50;;
69744;SDS011;57015;50.120;-5.168;2023-06-14T11:39:51;10.13;;;5.85;;
69744;SDS011;57015;50.120;-5.168;2023-06-14T11:42:17;8.37;;;5.10;;
69744;SDS011;57015;50.120;-5.168;2023-06-14T11:44:45;9.68;;;5.80;;
69744;SDS011;57015;50.120;-5.168;2023-06-14T11:47:11;7.78;;;5.10;;
69744;SDS011;57015;50.120;-5.168;2023-06-14T11:49:37;7.70;;;5.20;;
69744;SDS011;57015;50.120;-5.168;2023-06-14T11:52:02;8.07;;;4.70;;
69744;SDS011;57015;50.120;-5.168;2023-06-14T11:54:28;9.60;;;4.63;;
69744;SDS011;57015;50.120;-5.168;2023-06-14T11:56:53;8.13;;;4.43;;
69744;SDS011;57015;50.120;-5.168;2023-06-14T11:59:20;7.20;;;4.80;;
69744;SDS011;57015;50.120;-5.168;2023-06-14T12:01:47;6.65;;;4.65;;
69744;SDS011;57015;50.120;-5.168;2023-06-14T12:04:12;7.90;;;4.18;;
69744;SDS011;57015;50.120;-5.168;2023-06-14T12:06:38;7.60;;;4.37;;
69744;SDS011;57015;50.120;-5.168;2023-06-14T12:09:05;6.45;;;4.78;;
69744;SDS011;57015;50.120;-5.168;2023-06-14T12:11:37;5.70;;;4.33;;
69744;SDS011;57015;50.120;-5.168;2023-06-14T12:14:07;6.20;;;4.38;;
69744;SDS011;57015;50.120;-5.168;2023-06-14T12:16:34;7.95;;;4.53;;
69744;SDS011;57015;50.120;-5.168;2023-06-14T12:19:07;6.83;;;4.27;;
69744;SDS011;57015;50.120;-5.168;2023-06-14T12:21:36;6.00;;;4.07;;
69744;SDS011;57015;50.120;-5.168;2023-06-14T12:24:03;6.50;;;4.18;;
69744;SDS011;57015;50.120;-5.168;2023-06-14T12:26:31;9.02;;;4.05;;
69744;SDS011;57015;50.120;-5.168;2023-06-14T12:28:57;7.07;;;4.23;;
69744;SDS011;57015;50.120;-5.168;2023-06-14T12:31:22;6.10;;;4.07;;
69744;SDS011;57015;50.120;-5.168;2023-06-14T12:33:47;6.77;;;3.67;;
69744;SDS011;57015;50.120;-5.168;2023-06-14T12:36:16;8.20;;;3.90;;
69744;SDS011;57015;50.120;-5.168;2023-06-14T12:38:44;5.68;;;3.95;;
69744;SDS011;57015;50.120;-5.168;2023-06-14T12:41:11;5.85;;;3.92;;
69744;SDS011;57015;50.120;-5.168;2023-06-14T12:43:36;6.97;;;4.03;;
69744;SDS011;57015;50.120;-5.168;2023-06-14T12:46:02;6.10;;;3.70;;
69744;SDS011;57015;50.120;-5.168;2023-06-14T12:48:27;4.93;;;3.00;;
69744;SDS011;57015;50.120;-5.168;2023-06-14T12:50:53;5.37;;;4.20;;
69744;SDS011;57015;50.120;-5.168;2023-06-14T12:53:18;6.43;;;3.38;;
69744;SDS011;57015;50.120;-5.168;2023-06-14T12:55:43;5.73;;;3.80;;
69744;SDS011;57015;50.120;-5.168;2023-06-14T12:58:09;5.63;;;3.75;;
69744;SDS011;57015;50.120;-5.168;2023-06-14T13:00:37;5.72;;;3.33;;
69744;SDS011;57015;50.120;-5.168;2023-06-14T13:03:03;5.43;;;3.63;;
69744;SDS011;57015;50.120;-5.168;2023-06-14T13:05:28;6.03;;;3.77;;
69744;SDS011;57015;50.120;-5.168;2023-06-14T13:07:56;6.60;;;4.03;;
69744;SDS011;57015;50.120;-5.168;2023-06-14T13:10:21;6.90;;;3.37;;
69744;SDS011;57015;50.120;-5.168;2023-06-14T13:12:46;9.20;;;3.87;;
69744;SDS011;57015;50.120;-5.168;2023-06-14T13:15:12;8.18;;;3.15;;
69744;SDS011;57015;50.120;-5.168;2023-06-14T13:17:37;5.63;;;3.27;;
69744;SDS011;57015;50.120;-5.168;2023-06-14T13:20:07;5.68;;;3.55;;
69744;SDS011;57015;50.120;-5.168;2023-06-14T13:22:33;9.45;;;4.05;;
69744;SDS011;57015;50.120;-5.168;2023-06-14T13:24:59;6.80;;;4.10;;
69744;SDS011;57015;50.120;-5.168;2023-06-14T13:27:25;9.97;;;4.40;;
69744;SDS011;57015;50.120;-5.168;2023-06-14T13:29:51;6.85;;;3.78;;
69744;SDS011;57015;50.120;-5.168;2023-06-14T13:32:16;5.83;;;3.63;;
69744;SDS011;57015;50.120;-5.168;2023-06-14T13:34:41;5.87;;;3.60;;
69744;SDS011;57015;50.120;-5.168;2023-06-14T13:37:07;7.32;;;3.67;;
69744;SDS011;57015;50.120;-5.168;2023-06-14T13:39:32;5.77;;;3.63;;
69744;SDS011;57015;50.120;-5.168;2023-06-14T13:41:57;8.57;;;4.10;;
69744;SDS011;57015;50.120;-5.168;2023-06-14T13:44:23;8.73;;;4.37;;
69744;SDS011;57015;50.120;-5.168;2023-06-14T13:46:50;6.47;;;4.20;;
69744;SDS011;57015;50.120;-5.168;2023-06-14T13:49:15;6.50;;;3.60;;
69744;SDS011;57015;50.120;-5.168;2023-06-14T13:51:40;6.83;;;4.40;;
69744;SDS011;57015;50.120;-5.168;2023-06-14T13:54:06;8.07;;;3.97;;
69744;SDS011;57015;50.120;-5.168;2023-06-14T13:56:31;7.37;;;4.43;;
69744;SDS011;57015;50.120;-5.168;2023-06-14T13:58:57;7.43;;;3.95;;
69744;SDS011;57015;50.120;-5.168;2023-06-14T14:01:22;8.50;;;3.97;;
69744;SDS011;57015;50.120;-5.168;2023-06-14T14:03:49;8.20;;;5.03;;
69744;SDS011;57015;50.120;-5.168;2023-06-14T14:06:14;8.48;;;4.38;;
69744;SDS011;57015;50.120;-5.168;2023-06-14T14:08:40;7.05;;;4.22;;
69744;SDS011;57015;50.120;-5.168;2023-06-14T14:11:06;7.87;;;4.10;;
69744;SDS011;57015;50.120;-5.168;2023-06-14T14:13:32;7.65;;;3.85;;
69744;SDS011;57015;50.120;-5.168;2023-06-14T14:15:58;6.65;;;4.05;;
69744;SDS011;57015;50.120;-5.168;2023-06-14T14:18:24;5.70;;;4.17;;
69744;SDS011;57015;50.120;-5.168;2023-06-14T14:20:49;7.35;;;4.68;;
69744;SDS011;57015;50.120;-5.168;2023-06-14T14:23:15;9.70;;;4.00;;
69744;SDS011;57015;50.120;-5.168;2023-06-14T14:25:40;7.80;;;4.50;;
69744;SDS011;57015;50.120;-5.168;2023-06-14T14:28:06;8.23;;;4.10;;
69744;SDS011;57015;50.120;-5.168;2023-06-14T14:30:31;6.13;;;4.13;;
69744;SDS011;57015;50.120;-5.168;2023-06-14T14:32:57;7.28;;;4.47;;
69744;SDS011;57015;50.120;-5.168;2023-06-14T14:35:23;6.53;;;4.25;;
69744;SDS011;57015;50.120;-5.168;2023-06-14T14:37:51;7.67;;;4.27;;
69744;SDS011;57015;50.120;-5.168;2023-06-14T14:40:16;9.35;;;4.68;;
69744;SDS011;57015;50.120;-5.168;2023-06-14T14:42:41;6.07;;;4.30;;